Time;durP1;ratioP1;P1;durP2;ratioP2;P2;SDS_P1;SDS_P2;PMS_P1;PMS_P2;Temp;Humidity;BMP_temperature;BMP_pressure;BME280_temperature;BME280_humidity;BME280_pressure;Samples;Min_cycle;Max_cycle;Signal;HPM_P1;HPM_P2
2021/03/27 00:00:56;;;;;;;8.20;2.53;;;3.70;99.90;;;;;;5052017;28;20232;-81
2021/03/27 00:03:32;;;;;;;6.67;2.70;;;3.60;99.90;;;;;;5052496;28;20235;-81
2021/03/27 00:06:03;;;;;;;11.13;2.90;;;3.60;99.90;;;;;;5046921;28;20696;-81
2021/03/27 00:08:43;;;;;;;7.87;2.60;;;3.60;99.90;;;;;;5050816;28;20242;-82
2021/03/27 00:11:14;;;;;;;9.17;2.97;;;3.60;99.90;;;;;;5051172;28;20227;-81
2021/03/27 00:13:50;;;;;;;12.30;3.50;;;3.60;99.90;;;;;;5052293;28;20199;-82
2021/03/27 00:16:24;;;;;;;7.27;3.17;;;3.50;99.90;;;;;;5051957;28;20202;-81
2021/03/27 00:19:02;;;;;;;10.87;3.03;;;3.50;99.90;;;;;;5051570;28;20223;-81
2021/03/27 00:21:36;;;;;;;8.43;2.70;;;3.50;99.90;;;;;;5051977;28;20255;-81
2021/03/27 00:24:07;;;;;;;9.67;3.17;;;3.40;99.90;;;;;;5050731;28;20251;-81
2021/03/27 00:26:41;;;;;;;5.40;2.57;;;3.40;99.90;;;;;;5052222;28;20281;-81
2021/03/27 00:29:12;;;;;;;10.10;2.97;;;3.40;99.90;;;;;;5040673;28;20202;-81
2021/03/27 00:31:43;;;;;;;5.90;2.73;;;3.40;99.90;;;;;;5051284;28;20236;-80
2021/03/27 00:34:12;;;;;;;9.40;2.87;;;3.40;99.90;;;;;;5051845;28;20204;-81
2021/03/27 00:36:42;;;;;;;7.20;2.27;;;3.30;99.90;;;;;;5052140;28;20632;-80
2021/03/27 00:39:15;;;;;;;7.23;2.40;;;3.30;99.90;;;;;;5051862;28;20679;-81
2021/03/27 00:41:47;;;;;;;13.00;2.40;;;3.30;99.90;;;;;;5047723;28;20196;-81
2021/03/27 00:44:14;;;;;;;8.80;2.10;;;3.30;99.90;;;;;;5047750;28;20718;-81
2021/03/27 00:46:45;;;;;;;8.33;2.03;;;3.30;99.90;;;;;;5035026;28;20202;-81
2021/03/27 00:49:14;;;;;;;7.27;2.03;;;3.20;99.90;;;;;;5051215;28;20203;-81
2021/03/27 00:51:46;;;;;;;7.60;2.20;;;3.30;99.90;;;;;;5052079;28;20275;-81
2021/03/27 00:54:21;;;;;;;8.60;2.00;;;3.30;99.90;;;;;;5051222;28;20254;-81
2021/03/27 00:56:57;;;;;;;6.73;1.80;;;3.20;99.90;;;;;;5051951;28;20673;-81
2021/03/27 00:59:27;;;;;;;6.97;1.80;;;3.30;99.90;;;;;;5052020;28;20203;-81
2021/03/27 01:01:57;;;;;;;7.57;2.30;;;3.20;99.90;;;;;;5050696;28;20629;-81
2021/03/27 01:04:28;;;;;;;8.00;2.33;;;3.20;99.90;;;;;;5050568;28;20725;-80
2021/03/27 01:06:56;;;;;;;9.50;2.27;;;3.20;99.90;;;;;;5051690;28;20670;-80
2021/03/27 01:09:27;;;;;;;8.57;2.50;;;3.20;99.90;;;;;;5036517;28;20298;-81
2021/03/27 01:12:00;;;;;;;9.67;1.80;;;3.20;99.90;;;;;;5051736;28;20345;-81
2021/03/27 01:14:30;;;;;;;8.63;2.27;;;3.30;99.90;;;;;;5051449;28;20289;-82
2021/03/27 01:16:59;;;;;;;12.37;2.20;;;3.20;99.90;;;;;;5051943;28;20247;-80
2021/03/27 01:19:30;;;;;;;9.93;2.10;;;3.20;99.90;;;;;;5050811;28;20248;-81
2021/03/27 01:21:59;;;;;;;5.83;2.03;;;3.30;99.90;;;;;;5051727;28;20253;-81
2021/03/27 01:24:29;;;;;;;8.30;1.57;;;3.20;99.90;;;;;;5050941;28;20267;-80
2021/03/27 01:26:58;;;;;;;8.57;1.80;;;3.20;99.90;;;;;;5052879;28;20235;-81
2021/03/27 01:29:29;;;;;;;10.20;1.80;;;3.20;99.90;;;;;;5054988;28;20589;-81
2021/03/27 01:32:05;;;;;;;4.37;2.00;;;3.20;99.90;;;;;;5038083;28;20252;-80
2021/03/27 01:34:37;;;;;;;5.93;1.70;;;3.20;99.90;;;;;;5035540;28;20202;-81
2021/03/27 01:37:12;;;;;;;6.77;1.77;;;3.10;99.90;;;;;;5035634;28;20200;-82
2021/03/27 01:39:50;;;;;;;10.43;2.03;;;3.10;99.90;;;;;;5035147;28;20233;-81
2021/03/27 01:42:21;;;;;;;7.93;2.30;;;3.20;99.90;;;;;;5027441;28;20188;-81
2021/03/27 01:45:18;;;;;;;6.67;2.10;;;3.10;99.90;;;;;;5042399;28;20254;-81
2021/03/27 01:47:51;;;;;;;10.47;2.57;;;3.20;99.90;;;;;;5022000;28;20200;-80
2021/03/27 01:50:28;;;;;;;7.90;2.53;;;3.10;99.90;;;;;;5035469;28;20228;-80
2021/03/27 01:53:20;;;;;;;7.07;1.87;;;3.10;99.90;;;;;;5035039;28;20703;-80
2021/03/27 01:56:09;;;;;;;6.10;1.93;;;3.10;99.90;;;;;;5035177;28;20211;-81
2021/03/27 01:58:40;;;;;;;8.37;1.83;;;3.10;99.90;;;;;;5035130;28;20203;-80
2021/03/27 02:01:10;;;;;;;6.03;2.20;;;3.10;99.90;;;;;;5034932;28;20228;-81
2021/03/27 02:03:42;;;;;;;7.83;2.10;;;3.00;99.90;;;;;;5053977;28;20199;-80
2021/03/27 02:06:14;;;;;;;8.20;2.20;;;3.00;99.90;;;;;;5055163;28;20211;-81
2021/03/27 02:08:55;;;;;;;8.27;2.20;;;3.00;99.90;;;;;;5054534;28;20239;-80
2021/03/27 02:11:36;;;;;;;9.90;2.27;;;3.00;99.90;;;;;;5054830;28;20317;-81
2021/03/27 02:14:06;;;;;;;8.23;2.20;;;3.00;99.90;;;;;;5054298;28;20678;-81
2021/03/27 02:16:39;;;;;;;10.37;2.33;;;3.00;99.90;;;;;;5053448;28;20239;-80
2021/03/27 02:19:47;;;;;;;12.77;2.33;;;2.90;99.90;;;;;;5054544;28;20698;-80
2021/03/27 02:22:23;;;;;;;7.03;2.13;;;2.90;99.90;;;;;;5038397;28;20674;-81
2021/03/27 02:25:06;;;;;;;7.63;2.47;;;2.90;99.90;;;;;;5054422;28;20946;-81
2021/03/27 02:27:38;;;;;;;9.00;2.60;;;2.90;99.90;;;;;;5054412;28;20199;-81
2021/03/27 02:30:12;;;;;;;8.67;2.40;;;2.90;99.90;;;;;;5054037;28;20242;-80
2021/03/27 02:32:55;;;;;;;9.00;2.17;;;2.90;99.90;;;;;;5036100;28;20625;-81
2021/03/27 02:35:37;;;;;;;10.60;2.63;;;2.80;99.90;;;;;;5054048;28;20701;-80
2021/03/27 02:38:18;;;;;;;9.10;2.33;;;2.70;99.90;;;;;;5053809;28;20278;-81
2021/03/27 02:40:53;;;;;;;6.37;1.90;;;2.70;99.90;;;;;;5054383;28;20608;-81
2021/03/27 02:43:24;;;;;;;13.13;2.50;;;2.80;99.90;;;;;;5038512;28;20242;-80
2021/03/27 02:46:03;;;;;;;9.67;2.73;;;2.70;99.90;;;;;;5052949;28;20308;-81
2021/03/27 02:48:44;;;;;;;7.43;2.60;;;2.70;99.90;;;;;;5045621;28;20691;-80
2021/03/27 02:51:19;;;;;;;10.93;2.70;;;2.70;99.90;;;;;;5054267;28;20259;-81
2021/03/27 02:53:56;;;;;;;9.93;2.53;;;2.70;99.90;;;;;;5053977;28;20606;-80
2021/03/27 02:56:28;;;;;;;11.97;2.67;;;2.70;99.90;;;;;;5053579;28;20625;-81
2021/03/27 02:59:22;;;;;;;8.67;2.20;;;2.70;99.90;;;;;;5053738;28;20188;-80
2021/03/27 03:02:00;;;;;;;13.97;2.90;;;2.70;99.90;;;;;;5053590;28;20233;-81
2021/03/27 03:04:39;;;;;;;7.40;2.40;;;2.60;99.90;;;;;;5035374;28;20212;-81
2021/03/27 03:07:10;;;;;;;9.90;2.60;;;2.60;99.90;;;;;;5037668;28;20217;-80
2021/03/27 03:09:46;;;;;;;10.10;2.47;;;2.60;99.90;;;;;;5049538;28;20196;-80
2021/03/27 03:12:19;;;;;;;8.67;2.63;;;2.60;99.90;;;;;;5033940;28;20254;-80
2021/03/27 03:14:59;;;;;;;10.37;2.60;;;2.70;99.90;;;;;;5039043;28;20692;-80
2021/03/27 03:17:39;;;;;;;8.83;2.40;;;2.60;99.90;;;;;;5051499;28;20736;-81
2021/03/27 03:20:22;;;;;;;11.83;3.07;;;2.60;99.90;;;;;;5052896;28;20708;-80
2021/03/27 03:22:58;;;;;;;10.13;3.00;;;2.60;99.90;;;;;;5053282;28;20242;-80
2021/03/27 03:25:29;;;;;;;15.43;3.10;;;2.60;99.90;;;;;;5053501;28;20310;-80
2021/03/27 03:28:16;;;;;;;11.80;2.83;;;2.50;99.90;;;;;;5052910;28;20227;-80
2021/03/27 03:30:50;;;;;;;8.83;2.40;;;2.50;99.90;;;;;;5037063;28;20245;-79
2021/03/27 03:33:59;;;;;;;8.73;2.50;;;2.50;99.90;;;;;;5046211;28;20673;-80
2021/03/27 03:36:33;;;;;;;9.60;2.70;;;2.50;99.90;;;;;;5009180;28;20245;-80
2021/03/27 03:39:15;;;;;;;10.90;2.47;;;2.50;99.90;;;;;;5047491;28;20242;-80
2021/03/27 03:41:51;;;;;;;7.07;2.07;;;2.50;99.90;;;;;;5052022;28;20286;-80
2021/03/27 03:44:32;;;;;;;12.40;2.47;;;2.50;99.90;;;;;;5052426;28;20229;-80
2021/03/27 03:47:06;;;;;;;6.60;2.27;;;2.40;99.90;;;;;;5052729;28;20203;-80
2021/03/27 03:49:45;;;;;;;8.00;2.10;;;2.30;99.90;;;;;;5035780;28;20200;-81
2021/03/27 03:52:40;;;;;;;9.10;2.10;;;2.20;99.90;;;;;;5052190;28;20246;-80
2021/03/27 03:55:29;;;;;;;10.60;2.40;;;2.20;99.90;;;;;;5034750;28;20337;-80
2021/03/27 03:58:15;;;;;;;8.90;2.17;;;2.20;99.90;;;;;;5052532;28;20212;-81
2021/03/27 04:00:48;;;;;;;9.43;2.00;;;2.20;99.90;;;;;;5034852;28;20254;-80
2021/03/27 04:03:25;;;;;;;8.53;2.10;;;2.30;99.90;;;;;;5051773;28;20201;-80
2021/03/27 04:05:58;;;;;;;8.30;2.00;;;2.30;99.90;;;;;;5052501;28;20702;-81
2021/03/27 04:08:32;;;;;;;8.10;1.83;;;2.30;99.90;;;;;;5044166;28;20203;-80
2021/03/27 04:11:03;;;;;;;8.60;2.07;;;2.30;99.90;;;;;;5052439;28;20203;-80
2021/03/27 04:13:35;;;;;;;8.93;2.10;;;2.30;99.90;;;;;;5052423;28;20614;-80
2021/03/27 04:16:07;;;;;;;11.33;2.23;;;2.30;99.90;;;;;;5052291;28;20252;-80
2021/03/27 04:18:38;;;;;;;9.90;2.10;;;2.20;99.90;;;;;;5051937;28;20288;-80
2021/03/27 04:21:08;;;;;;;9.53;2.17;;;2.20;99.90;;;;;;5052614;28;20237;-80
2021/03/27 04:23:53;;;;;;;13.30;2.63;;;2.10;99.90;;;;;;5051222;28;20267;-81
2021/03/27 04:26:41;;;;;;;6.83;1.97;;;2.10;99.90;;;;;;5035366;28;20669;-80
2021/03/27 04:29:34;;;;;;;10.40;2.43;;;2.20;99.90;;;;;;5051409;28;20297;-80
2021/03/27 04:32:28;;;;;;;10.07;2.07;;;2.10;99.90;;;;;;5051880;28;20306;-80
2021/03/27 04:35:08;;;;;;;9.23;2.00;;;2.10;99.90;;;;;;5048755;28;20203;-80
2021/03/27 04:37:41;;;;;;;10.90;1.87;;;2.20;99.90;;;;;;5016814;28;20250;-80
2021/03/27 04:40:17;;;;;;;9.87;2.10;;;2.20;99.90;;;;;;5051358;28;20685;-79
2021/03/27 04:42:48;;;;;;;9.70;1.87;;;2.30;99.90;;;;;;5051998;28;20201;-80
2021/03/27 04:45:22;;;;;;;9.70;1.90;;;2.40;99.90;;;;;;5052008;28;20232;-79
2021/03/27 04:48:01;;;;;;;7.50;1.80;;;2.30;99.90;;;;;;5052099;28;20259;-80
2021/03/27 04:50:34;;;;;;;13.37;1.90;;;2.30;99.90;;;;;;5046810;28;20211;-81
2021/03/27 04:53:05;;;;;;;8.33;1.93;;;2.30;99.90;;;;;;5032050;28;20228;-80
2021/03/27 04:55:44;;;;;;;9.30;1.93;;;2.30;99.90;;;;;;5047442;28;20559;-80
2021/03/27 04:58:33;;;;;;;12.80;2.03;;;2.30;99.90;;;;;;5051912;28;20212;-80
2021/03/27 05:01:11;;;;;;;9.77;1.90;;;2.30;99.90;;;;;;5053760;28;20297;-80
2021/03/27 05:03:43;;;;;;;9.33;1.83;;;2.30;99.90;;;;;;5056239;28;20208;-80
2021/03/27 05:06:18;;;;;;;12.30;2.17;;;2.30;99.90;;;;;;5056150;28;20206;-80
2021/03/27 05:09:15;;;;;;;10.10;2.17;;;2.30;99.90;;;;;;5056404;28;20212;-80
2021/03/27 05:11:50;;;;;;;9.77;1.97;;;2.20;99.90;;;;;;5011472;28;20324;-80
2021/03/27 05:14:38;;;;;;;10.43;2.30;;;2.20;99.90;;;;;;5056311;28;20200;-81
2021/03/27 05:17:11;;;;;;;13.47;2.80;;;2.10;99.90;;;;;;5028844;28;20237;-80
2021/03/27 05:19:41;;;;;;;10.43;2.50;;;2.20;99.90;;;;;;5056276;28;20210;-80
2021/03/27 05:22:22;;;;;;;8.00;2.47;;;2.10;99.90;;;;;;5038201;28;20199;-81
2021/03/27 05:25:19;;;;;;;10.70;2.30;;;2.10;99.90;;;;;;5056155;28;20237;-80
2021/03/27 05:28:01;;;;;;;12.80;2.93;;;2.10;99.90;;;;;;5055485;28;20317;-80
2021/03/27 05:30:38;;;;;;;10.17;2.53;;;2.10;99.90;;;;;;5056380;28;20209;-80
2021/03/27 05:33:38;;;;;;;21.00;3.73;;;2.10;99.90;;;;;;5055728;28;20748;-80
2021/03/27 05:36:28;;;;;;;11.83;3.13;;;2.10;99.90;;;;;;5056165;28;20241;-80
2021/03/27 05:39:02;;;;;;;13.40;2.73;;;2.20;99.90;;;;;;5055404;28;20237;-80
2021/03/27 05:41:53;;;;;;;13.87;3.47;;;2.20;99.90;;;;;;5041557;28;20200;-80
2021/03/27 05:44:49;;;;;;;16.60;3.73;;;2.30;99.90;;;;;;5036430;28;20238;-81
2021/03/27 05:48:16;;;;;;;12.70;3.50;;;2.30;99.90;;;;;;5036111;28;20194;-80
2021/03/27 05:51:14;;;;;;;12.77;3.00;;;2.30;99.90;;;;;;5035590;28;20203;-78
2021/03/27 05:54:09;;;;;;;16.63;3.43;;;2.20;99.90;;;;;;5035117;28;20703;-81
2021/03/27 05:57:15;;;;;;;13.30;3.23;;;2.30;99.90;;;;;;5049767;28;20235;-78
2021/03/27 06:00:20;;;;;;;13.37;3.60;;;2.30;99.90;;;;;;5055416;28;20346;-79
2021/03/27 06:03:14;;;;;;;15.57;3.80;;;2.30;99.90;;;;;;5039031;28;20196;-81
2021/03/27 06:06:11;;;;;;;18.43;4.03;;;2.30;99.90;;;;;;5055969;28;20542;-80
2021/03/27 06:08:49;;;;;;;16.50;4.57;;;2.30;99.90;;;;;;4993708;28;20205;-82
2021/03/27 06:11:44;;;;;;;13.00;4.20;;;2.30;99.90;;;;;;4994404;28;20859;-80
2021/03/27 06:14:38;;;;;;;12.63;3.77;;;2.40;99.90;;;;;;4993374;28;20244;-80
2021/03/27 06:17:28;;;;;;;16.93;4.20;;;2.40;99.90;;;;;;4993596;28;20315;-80
2021/03/27 06:20:39;;;;;;;11.03;3.60;;;2.50;99.90;;;;;;4993829;28;20211;-81
2021/03/27 06:23:35;;;;;;;14.93;3.77;;;2.70;99.90;;;;;;4992864;28;20276;-81
2021/03/27 06:26:48;;;;;;;14.93;3.90;;;2.80;99.90;;;;;;4992785;28;20340;-81
2021/03/27 06:29:51;;;;;;;11.77;3.83;;;3.00;99.90;;;;;;4975872;28;20342;-80
2021/03/27 06:32:47;;;;;;;14.73;3.83;;;3.20;99.90;;;;;;4981798;28;20302;-81
2021/03/27 06:35:31;;;;;;;10.13;3.00;;;3.50;99.90;;;;;;4992779;28;20202;-79
2021/03/27 06:38:24;;;;;;;10.83;2.87;;;3.70;99.90;;;;;;4986690;28;20225;-81
2021/03/27 06:41:05;;;;;;;10.73;2.93;;;3.90;99.90;;;;;;4953988;29;20305;-80
2021/03/27 06:44:00;;;;;;;8.10;2.30;;;4.00;99.90;;;;;;4954095;29;20231;-82
2021/03/27 06:46:58;;;;;;;13.60;3.07;;;4.20;99.90;;;;;;4984594;28;20279;-81
2021/03/27 06:50:04;;;;;;;9.70;3.07;;;4.40;99.90;;;;;;4992159;28;20895;-81
2021/03/27 06:53:01;;;;;;;14.67;3.17;;;4.90;99.90;;;;;;4934411;29;20237;-81
2021/03/27 06:55:50;;;;;;;17.73;3.10;;;5.70;99.90;;;;;;4918038;29;20673;-81
2021/03/27 06:58:58;;;;;;;11.33;3.07;;;6.70;99.90;;;;;;4934449;29;20699;-80
2021/03/27 07:01:59;;;;;;;10.97;3.07;;;7.50;99.90;;;;;;4877874;29;20212;-81
2021/03/27 07:04:50;;;;;;;9.70;2.73;;;8.40;99.90;;;;;;4868598;29;20253;-80
2021/03/27 07:07:55;;;;;;;9.73;2.90;;;8.40;99.90;;;;;;4877779;29;20216;-80
2021/03/27 07:11:16;;;;;;;12.53;3.00;;;8.10;99.90;;;;;;4877583;29;20241;-80
2021/03/27 07:14:34;;;;;;;11.13;3.30;;;8.70;99.90;;;;;;4840961;29;20238;-81
2021/03/27 07:17:16;;;;;;;12.77;2.90;;;9.60;99.90;;;;;;4845577;29;20269;-80
2021/03/27 07:20:16;;;;;;;10.57;2.70;;;9.90;99.90;;;;;;4877333;29;20241;-82
2021/03/27 07:23:10;;;;;;;11.97;3.00;;;10.20;99.90;;;;;;4867980;29;20233;-81
2021/03/27 07:26:27;;;;;;;9.13;2.73;;;10.60;99.90;;;;;;4876987;29;20198;-82
2021/03/27 07:29:31;;;;;;;11.03;3.60;;;11.60;99.90;;;;;;4837603;29;20212;-81
2021/03/27 07:32:16;;;;;;;13.73;4.60;;;11.60;99.90;;;;;;4896229;29;20284;-82
2021/03/27 07:35:02;;;;;;;9.57;3.73;;;11.80;99.90;;;;;;4895788;29;20272;-83
2021/03/27 07:38:21;;;;;;;10.60;4.03;;;12.60;99.90;;;;;;4914116;29;20195;-82
2021/03/27 07:41:00;;;;;;;9.97;3.80;;;13.30;99.90;;;;;;4953227;29;20196;-83
2021/03/27 07:44:00;;;;;;;9.17;3.40;;;13.30;99.90;;;;;;4953137;29;20637;-83
2021/03/27 07:47:15;;;;;;;8.35;2.75;;;13.40;99.90;;;;;;5110182;27;20501;-84
2021/03/27 07:50:21;;;;;;;7.70;2.35;;;14.20;99.90;;;;;;5107880;28;20208;-82
2021/03/27 07:53:10;;;;;;;9.93;2.65;;;14.40;99.90;;;;;;5110145;28;20197;-83
2021/03/27 07:56:15;;;;;;;8.07;2.67;;;14.90;99.90;;;;;;5109688;28;20200;-82
2021/03/27 07:59:23;;;;;;;7.72;2.33;;;15.00;99.90;;;;;;5110098;28;20204;-83
2021/03/27 08:02:00;;;;;;;11.07;2.80;;;15.20;99.90;;;;;;5089716;28;20194;-84
2021/03/27 08:05:26;;;;;;;6.57;2.65;;;14.70;99.90;;;;;;5089263;28;20222;-83
2021/03/27 08:08:04;;;;;;;8.80;2.58;;;15.50;99.90;;;;;;5067182;28;20199;-85
2021/03/27 08:10:43;;;;;;;7.78;2.67;;;16.10;99.90;;;;;;5046787;28;20654;-85
2021/03/27 08:13:33;;;;;;;11.23;2.58;;;17.00;99.90;;;;;;5052061;28;20229;-86
2021/03/27 08:16:29;;;;;;;8.35;2.70;;;16.30;99.90;;;;;;5067446;28;20200;-85
2021/03/27 08:19:20;;;;;;;9.90;2.78;;;15.80;99.90;;;;;;5021388;28;20212;-83
2021/03/27 08:21:59;;;;;;;7.65;2.42;;;15.80;99.90;;;;;;5026934;28;20204;-84
2021/03/27 08:24:40;;;;;;;8.55;2.60;;;16.00;99.90;;;;;;5026919;28;20208;-84
2021/03/27 08:27:42;;;;;;;7.70;2.42;;;16.40;99.90;;;;;;5042738;28;20202;-82
2021/03/27 08:30:46;;;;;;;9.10;2.83;;;14.70;99.90;;;;;;5055184;28;20338;-82
2021/03/27 08:33:38;;;;;;;8.45;2.95;;;14.60;99.90;;;;;;5045165;28;20207;-82
2021/03/27 08:36:45;;;;;;;8.63;2.95;;;15.90;99.90;;;;;;5040823;28;20223;-83
2021/03/27 08:39:48;;;;;;;9.95;2.92;;;16.40;99.90;;;;;;5044754;28;20273;-81
2021/03/27 08:42:42;;;;;;;11.75;2.85;;;16.80;99.90;;;;;;5068354;28;20222;-84
2021/03/27 08:45:35;;;;;;;6.07;2.40;;;17.30;99.90;;;;;;5090594;28;20242;-80
2021/03/27 08:48:26;;;;;;;7.45;2.10;;;17.20;99.90;;;;;;5080736;28;20198;-81
2021/03/27 08:51:19;;;;;;;7.95;2.30;;;17.40;99.90;;;;;;5087455;28;20195;-79
2021/03/27 08:54:28;;;;;;;8.10;2.30;;;17.40;99.90;;;;;;5083500;28;20194;-79
2021/03/27 08:57:26;;;;;;;8.30;2.38;;;17.40;99.90;;;;;;5077199;28;20699;-79
2021/03/27 09:00:18;;;;;;;9.35;2.40;;;18.10;99.90;;;;;;5070715;28;20230;-80
2021/03/27 09:03:00;;;;;;;7.10;2.10;;;18.30;99.90;;;;;;5058946;28;20226;-80
2021/03/27 09:06:10;;;;;;;7.55;2.38;;;18.30;99.90;;;;;;5064265;28;20234;-79
2021/03/27 09:12:32;;;;;;;;;;;;;;;;;;;;;
2021/03/27 09:32:44;;;;;;;6.03;2.15;;;18.30;99.90;;;;;;4787067;29;20266;-79
2021/03/27 09:35:47;;;;;;;7.38;2.08;;;18.40;99.90;;;;;;4815252;29;20696;-79
2021/03/27 09:38:31;;;;;;;8.63;1.80;;;19.40;99.90;;;;;;4816914;29;20612;-79
2021/03/27 09:41:50;;;;;;;9.40;2.03;;;20.00;99.90;;;;;;4817973;29;20212;-78
2021/03/27 09:44:46;;;;;;;8.90;2.20;;;20.50;99.90;;;;;;4741245;30;20249;-78
2021/03/27 09:47:26;;;;;;;7.85;2.13;;;20.10;99.90;;;;;;4738184;30;20246;-78
2021/03/27 09:50:03;;;;;;;7.55;1.85;;;20.10;99.90;;;;;;4784382;30;20212;-79
2021/03/27 09:52:55;;;;;;;4.13;1.73;;;19.80;99.90;;;;;;4782274;30;20285;-78
2021/03/27 09:55:49;;;;;;;8.38;2.00;;;18.40;99.90;;;;;;4837024;29;20233;-78
2021/03/27 09:58:33;;;;;;;6.53;1.92;;;19.30;99.90;;;;;;4935006;29;20227;-78
2021/03/27 10:01:12;;;;;;;6.70;1.80;;;20.10;99.90;;;;;;4955297;28;20207;-78
2021/03/27 10:03:46;;;;;;;7.72;2.00;;;18.50;99.90;;;;;;5042342;28;20239;-76
2021/03/27 10:06:48;;;;;;;5.40;1.65;;;16.90;99.90;;;;;;5046470;28;20247;-77
2021/03/27 10:09:53;;;;;;;6.32;1.63;;;17.30;99.90;;;;;;5043843;28;20203;-77
2021/03/27 10:12:25;;;;;;;8.82;1.75;;;19.10;99.90;;;;;;5048067;28;20737;-77
2021/03/27 10:14:55;;;;;;;6.93;2.17;;;19.60;99.90;;;;;;5047888;28;20326;-77
2021/03/27 10:17:29;;;;;;;7.18;1.85;;;17.90;99.90;;;;;;5048703;28;20223;-77
2021/03/27 10:20:09;;;;;;;5.53;1.75;;;17.50;99.90;;;;;;5053828;28;20267;-77
2021/03/27 10:22:41;;;;;;;9.40;2.00;;;18.00;99.90;;;;;;5063742;28;20207;-77
2021/03/27 10:25:22;;;;;;;7.97;1.63;;;19.20;99.90;;;;;;5069792;28;20227;-77
2021/03/27 10:27:53;;;;;;;5.25;1.85;;;19.70;99.90;;;;;;5071676;28;20211;-77
2021/03/27 10:30:28;;;;;;;5.97;1.65;;;18.80;99.90;;;;;;5070799;28;20688;-75
2021/03/27 10:33:12;;;;;;;5.05;2.00;;;19.40;99.90;;;;;;5069261;28;20199;-75
2021/03/27 10:36:20;;;;;;;4.93;1.50;;;19.00;99.90;;;;;;5053024;28;20231;-79
2021/03/27 10:39:28;;;;;;;5.80;1.58;;;19.90;99.90;;;;;;5050793;28;20289;-77
2021/03/27 10:42:22;;;;;;;6.43;1.67;;;19.20;99.90;;;;;;5072494;28;20305;-76
2021/03/27 10:45:06;;;;;;;4.03;1.75;;;20.50;99.90;;;;;;5073079;28;20412;-77
2021/03/27 10:47:53;;;;;;;;;;;;;;;;;;;;;
2021/03/27 10:50:44;;;;;;;4.88;1.58;;;20.70;99.90;;;;;;5069096;28;20706;-77
2021/03/27 10:57:06;;;;;;;4.88;1.30;;;19.90;99.90;;;;;;5009135;28;20659;-77
2021/03/27 11:00:51;;;;;;;;;;;;;;;;;;;;;
2021/03/27 11:03:36;;;;;;;6.20;2.28;;;20.30;99.90;;;;;;5015394;28;20200;-77
2021/03/27 11:06:27;;;;;;;6.68;4.75;;;20.60;99.90;;;;;;5029345;28;20670;-79
2021/03/27 11:09:31;;;;;;;4.57;1.10;;;21.60;99.90;;;;;;5028567;28;20243;-78
2021/03/27 11:12:35;;;;;;;4.97;1.67;;;22.50;99.90;;;;;;5028778;28;20239;-78
2021/03/27 11:15:36;;;;;;;2.92;1.15;;;21.90;99.90;;;;;;5026721;28;20266;-78
2021/03/27 11:18:41;;;;;;;6.43;1.77;;;21.10;99.90;;;;;;5027952;28;20318;-77
2021/03/27 11:24:36;;;;;;;3.90;1.50;;;20.70;99.90;;;;;;5016066;28;20289;-78
2021/03/27 11:27:55;;;;;;;5.13;1.50;;;20.50;99.90;;;;;;5011950;28;20201;-78
2021/03/27 11:30:56;;;;;;;5.65;1.50;;;20.60;99.90;;;;;;5042615;28;20199;-79
2021/03/27 11:33:49;;;;;;;4.32;1.70;;;20.70;99.90;;;;;;5071053;28;20203;-78
2021/03/27 11:36:21;;;;;;;8.20;1.70;;;21.00;99.90;;;;;;5067302;28;20199;-79
2021/03/27 11:38:57;;;;;;;5.03;1.42;;;21.10;99.90;;;;;;5091507;28;20316;-79
2021/03/27 11:41:33;;;;;;;9.88;3.05;;;21.40;99.90;;;;;;5067275;28;20202;-78
2021/03/27 11:44:26;;;;;;;7.22;2.00;;;21.60;99.90;;;;;;5067737;28;20222;-78
2021/03/27 11:46:57;;;;;;;84.22;43.97;;;21.30;99.90;;;;;;5068330;28;20246;-77
2021/03/27 11:49:32;;;;;;;8.70;2.58;;;20.60;99.90;;;;;;5071522;28;20230;-77
2021/03/27 11:52:05;;;;;;;5.63;1.42;;;20.70;99.90;;;;;;5071317;28;20283;-78
2021/03/27 11:54:49;;;;;;;3.75;0.95;;;20.70;99.90;;;;;;5075205;28;20246;-78
2021/03/27 11:57:44;;;;;;;4.35;1.30;;;19.80;99.90;;;;;;5071320;28;20280;-77
2021/03/27 12:03:25;;;;;;;4.18;1.38;;;18.30;99.90;;;;;;5071422;28;20210;-78
2021/03/27 12:05:56;;;;;;;6.78;1.60;;;18.40;99.90;;;;;;5071535;28;20257;-80
2021/03/27 12:08:30;;;;;;;3.63;1.20;;;19.40;99.90;;;;;;5066640;28;20238;-80
2021/03/27 12:11:03;;;;;;;3.97;1.20;;;20.60;99.90;;;;;;5071381;28;20233;-78
2021/03/27 12:13:39;;;;;;;4.20;1.27;;;20.70;99.90;;;;;;5071444;28;20199;-79
2021/03/27 12:16:32;;;;;;;3.13;1.23;;;19.00;99.90;;;;;;5071223;28;20683;-79
2021/03/27 12:19:20;;;;;;;2.65;1.10;;;18.10;99.90;;;;;;5060824;28;20227;-78
2021/03/27 12:21:57;;;;;;;5.38;1.35;;;17.30;99.90;;;;;;5070285;28;20233;-79
2021/03/27 12:24:39;;;;;;;6.90;1.85;;;17.20;99.90;;;;;;5071180;28;20914;-77
2021/03/27 12:27:14;;;;;;;4.35;1.63;;;17.20;99.90;;;;;;5067319;28;20231;-78
2021/03/27 12:29:45;;;;;;;6.47;1.73;;;16.40;99.90;;;;;;5068444;28;20207;-80
2021/03/27 12:32:34;;;;;;;6.15;1.42;;;16.10;99.90;;;;;;5072278;28;20195;-79
2021/03/27 12:35:10;;;;;;;5.80;1.67;;;16.60;99.90;;;;;;5064100;28;20270;-78
2021/03/27 12:38:12;;;;;;;5.25;1.60;;;17.40;99.90;;;;;;5074218;28;20226;-78
2021/03/27 12:40:43;;;;;;;6.95;1.60;;;18.00;99.90;;;;;;5074457;28;20226;-77
2021/03/27 12:43:13;;;;;;;7.18;1.75;;;17.40;99.90;;;;;;5073606;28;20689;-76
2021/03/27 12:45:43;;;;;;;6.15;1.40;;;16.90;99.90;;;;;;5075225;28;20296;-78
2021/03/27 12:48:20;;;;;;;5.17;1.50;;;16.70;99.90;;;;;;5065724;28;20245;-78
2021/03/27 12:51:13;;;;;;;5.47;1.43;;;16.50;99.90;;;;;;5058443;28;20222;-78
2021/03/27 12:54:02;;;;;;;7.83;1.37;;;16.30;99.90;;;;;;5073057;28;20234;-78
2021/03/27 12:56:47;;;;;;;5.63;1.33;;;16.40;99.90;;;;;;5060009;28;20230;-78
2021/03/27 12:59:24;;;;;;;6.57;1.60;;;16.20;99.90;;;;;;5075100;28;20264;-79
2021/03/27 13:02:20;;;;;;;5.70;1.70;;;16.30;99.90;;;;;;5074343;28;20207;-78
2021/03/27 13:05:13;;;;;;;5.57;1.50;;;16.70;99.90;;;;;;5070400;28;20213;-78
2021/03/27 13:07:51;;;;;;;6.97;1.80;;;17.00;99.90;;;;;;5074386;28;20622;-79
2021/03/27 13:10:47;;;;;;;6.43;1.73;;;17.80;99.90;;;;;;5074672;28;20227;-78
2021/03/27 13:13:58;;;;;;;4.97;1.37;;;16.90;99.90;;;;;;5073797;28;20202;-78
2021/03/27 13:16:29;;;;;;;5.07;1.70;;;16.80;99.90;;;;;;5074030;28;20628;-78
2021/03/27 13:19:05;;;;;;;6.83;2.10;;;16.60;99.90;;;;;;5073531;28;20226;-78
2021/03/27 13:21:57;;;;;;;6.10;1.60;;;16.70;99.90;;;;;;5074140;28;20206;-78
2021/03/27 13:24:47;;;;;;;4.30;1.57;;;16.30;99.90;;;;;;5072430;28;20237;-78
2021/03/27 13:27:21;;;;;;;4.13;1.77;;;16.50;99.90;;;;;;5070311;28;20289;-78
2021/03/27 13:29:49;;;;;;;6.00;1.50;;;17.30;99.90;;;;;;5068037;28;20203;-78
2021/03/27 13:32:22;;;;;;;6.83;1.77;;;17.30;99.90;;;;;;5073022;28;20242;-78
2021/03/27 13:34:56;;;;;;;8.03;1.43;;;16.50;99.90;;;;;;5073802;28;20230;-78
2021/03/27 13:37:27;;;;;;;7.17;1.70;;;16.70;99.90;;;;;;5071401;28;20238;-79
2021/03/27 13:39:59;;;;;;;8.40;1.80;;;17.00;99.90;;;;;;5072544;28;20299;-78
2021/03/27 13:42:50;;;;;;;5.20;1.50;;;17.60;99.90;;;;;;5073428;28;20230;-77
2021/03/27 13:45:33;;;;;;;4.40;1.30;;;18.20;99.90;;;;;;5069234;28;20281;-78
2021/03/27 13:48:21;;;;;;;5.70;1.55;;;18.20;99.90;;;;;;5072842;28;20238;-78
2021/03/27 13:51:09;;;;;;;7.95;1.77;;;18.00;99.90;;;;;;5067490;28;20226;-77
2021/03/27 13:53:42;;;;;;;4.43;1.25;;;16.90;99.90;;;;;;5074857;28;20231;-77
2021/03/27 13:56:27;;;;;;;7.00;1.40;;;16.80;99.90;;;;;;5072960;28;20226;-77
2021/03/27 13:59:20;;;;;;;5.25;1.40;;;17.30;99.90;;;;;;5073314;28;20223;-77
2021/03/27 14:02:11;;;;;;;4.97;1.38;;;17.40;99.90;;;;;;5065879;28;20621;-77
2021/03/27 14:04:43;;;;;;;6.53;1.60;;;19.10;99.90;;;;;;5073093;28;20612;-77
2021/03/27 14:07:23;;;;;;;5.68;1.52;;;18.20;99.90;;;;;;5073167;28;20696;-77
2021/03/27 14:09:55;;;;;;;5.35;1.33;;;17.10;99.90;;;;;;5071624;28;20539;-77
2021/03/27 14:12:29;;;;;;;4.63;1.40;;;16.30;99.90;;;;;;5072921;28;20651;-77
2021/03/27 14:15:15;;;;;;;7.33;2.00;;;15.90;99.90;;;;;;5072287;28;20222;-77
2021/03/27 14:17:52;;;;;;;4.90;1.60;;;16.00;99.90;;;;;;5071624;28;20253;-77
2021/03/27 14:20:35;;;;;;;7.73;1.57;;;15.90;99.90;;;;;;5071793;28;20252;-78
2021/03/27 14:23:24;;;;;;;5.33;1.37;;;15.80;99.90;;;;;;5054877;28;20211;-78
2021/03/27 14:25:57;;;;;;;9.60;1.80;;;15.50;99.90;;;;;;5073259;28;20246;-77
2021/03/27 14:28:30;;;;;;;6.10;1.50;;;15.20;99.90;;;;;;5072221;28;20210;-78
2021/03/27 14:31:15;;;;;;;6.33;1.40;;;15.10;99.90;;;;;;5072763;28;20653;-77
2021/03/27 14:34:02;;;;;;;3.90;1.50;;;15.00;99.90;;;;;;5056648;28;20206;-78
2021/03/27 14:36:37;;;;;;;6.30;1.40;;;14.90;99.90;;;;;;5070043;28;20222;-78
2021/03/27 14:39:28;;;;;;;4.47;1.50;;;15.20;99.90;;;;;;5069374;28;20210;-78
2021/03/27 14:42:08;;;;;;;7.67;1.53;;;14.80;99.90;;;;;;5067973;28;20210;-77
2021/03/27 14:44:44;;;;;;;5.17;1.50;;;14.40;99.90;;;;;;5070012;28;20273;-77
2021/03/27 14:47:51;;;;;;;7.40;1.70;;;14.50;99.90;;;;;;5072353;28;20705;-77
2021/03/27 14:50:26;;;;;;;7.73;1.67;;;14.30;99.90;;;;;;5047985;28;20242;-76
2021/03/27 14:53:05;;;;;;;6.73;1.87;;;14.10;99.90;;;;;;5038074;28;20284;-77